sensor_id;sensor_type;location;lat;lon;timestamp;P1;durP1;ratioP1;P2;durP2;ratioP2
10987;SDS011;5547;42.672;23.230;2023-04-10T00:02:20;10.95;;;8.30;;
10987;SDS011;5547;42.672;23.230;2023-04-10T00:05:21;11.10;;;8.53;;
10987;SDS011;5547;42.672;23.230;2023-04-10T00:08:22;10.13;;;7.90;;
10987;SDS011;5547;42.672;23.230;2023-04-10T00:11:24;10.75;;;8.20;;
10987;SDS011;5547;42.672;23.230;2023-04-10T00:14:24;10.48;;;7.93;;
10987;SDS011;5547;42.672;23.230;2023-04-10T00:17:25;10.17;;;7.40;;
10987;SDS011;5547;42.672;23.230;2023-04-10T00:20:25;7.43;;;5.90;;
10987;SDS011;5547;42.672;23.230;2023-04-10T00:23:26;8.20;;;6.57;;
10987;SDS011;5547;42.672;23.230;2023-04-10T00:26:27;9.47;;;6.80;;
10987;SDS011;5547;42.672;23.230;2023-04-10T00:29:27;8.30;;;6.50;;
10987;SDS011;5547;42.672;23.230;2023-04-10T00:32:27;8.15;;;6.30;;
10987;SDS011;5547;42.672;23.230;2023-04-10T00:35:28;8.87;;;6.50;;
10987;SDS011;5547;42.672;23.230;2023-04-10T00:38:29;8.13;;;6.25;;
10987;SDS011;5547;42.672;23.230;2023-04-10T00:41:29;8.20;;;6.33;;
10987;SDS011;5547;42.672;23.230;2023-04-10T00:44:30;8.07;;;6.73;;
10987;SDS011;5547;42.672;23.230;2023-04-10T00:47:30;7.47;;;5.93;;
10987;SDS011;5547;42.672;23.230;2023-04-10T00:50:31;6.72;;;5.65;;
10987;SDS011;5547;42.672;23.230;2023-04-10T00:53:31;7.23;;;6.10;;
10987;SDS011;5547;42.672;23.230;2023-04-10T00:56:32;7.20;;;6.03;;
10987;SDS011;5547;42.672;23.230;2023-04-10T00:59:33;6.65;;;5.45;;
10987;SDS011;5547;42.672;23.230;2023-04-10T01:02:34;7.00;;;5.55;;
10987;SDS011;5547;42.672;23.230;2023-04-10T01:05:38;7.30;;;5.20;;
10987;SDS011;5547;42.672;23.230;2023-04-10T01:09:04;6.68;;;5.07;;
10987;SDS011;5547;42.672;23.230;2023-04-10T01:19:24;7.35;;;5.15;;
10987;SDS011;5547;42.672;23.230;2023-04-10T01:22:28;7.38;;;6.18;;
10987;SDS011;5547;42.672;23.230;2023-04-10T01:25:39;7.70;;;6.22;;
10987;SDS011;5547;42.672;23.230;2023-04-10T01:32:04;8.77;;;6.53;;
10987;SDS011;5547;42.672;23.230;2023-04-10T01:35:14;8.52;;;6.85;;
10987;SDS011;5547;42.672;23.230;2023-04-10T01:38:16;8.23;;;6.55;;
10987;SDS011;5547;42.672;23.230;2023-04-10T01:41:18;9.15;;;6.78;;
10987;SDS011;5547;42.672;23.230;2023-04-10T01:44:23;9.15;;;6.55;;
10987;SDS011;5547;42.672;23.230;2023-04-10T01:47:26;9.05;;;6.65;;
10987;SDS011;5547;42.672;23.230;2023-04-10T01:50:27;8.50;;;6.60;;
10987;SDS011;5547;42.672;23.230;2023-04-10T01:53:30;9.27;;;6.75;;
10987;SDS011;5547;42.672;23.230;2023-04-10T01:56:31;7.15;;;6.00;;
10987;SDS011;5547;42.672;23.230;2023-04-10T01:59:32;8.50;;;6.63;;
10987;SDS011;5547;42.672;23.230;2023-04-10T02:02:33;9.70;;;7.00;;
10987;SDS011;5547;42.672;23.230;2023-04-10T02:05:55;7.60;;;6.15;;
10987;SDS011;5547;42.672;23.230;2023-04-10T02:12:46;8.15;;;6.43;;
10987;SDS011;5547;42.672;23.230;2023-04-10T02:15:52;8.68;;;6.60;;
10987;SDS011;5547;42.672;23.230;2023-04-10T02:18:56;8.65;;;6.63;;
10987;SDS011;5547;42.672;23.230;2023-04-10T02:21:59;8.97;;;5.90;;
10987;SDS011;5547;42.672;23.230;2023-04-10T02:25:01;8.90;;;6.22;;
10987;SDS011;5547;42.672;23.230;2023-04-10T02:28:03;8.33;;;6.60;;
10987;SDS011;5547;42.672;23.230;2023-04-10T02:31:05;7.82;;;6.53;;
10987;SDS011;5547;42.672;23.230;2023-04-10T02:34:05;7.82;;;6.43;;
10987;SDS011;5547;42.672;23.230;2023-04-10T02:37:06;8.40;;;6.63;;
10987;SDS011;5547;42.672;23.230;2023-04-10T02:40:07;7.67;;;6.50;;
10987;SDS011;5547;42.672;23.230;2023-04-10T02:43:07;8.40;;;6.70;;
10987;SDS011;5547;42.672;23.230;2023-04-10T02:46:08;8.07;;;6.10;;
10987;SDS011;5547;42.672;23.230;2023-04-10T02:49:09;8.38;;;6.22;;
10987;SDS011;5547;42.672;23.230;2023-04-10T02:52:09;8.10;;;6.67;;
10987;SDS011;5547;42.672;23.230;2023-04-10T02:55:09;8.50;;;6.63;;
10987;SDS011;5547;42.672;23.230;2023-04-10T02:58:10;11.70;;;7.78;;
10987;SDS011;5547;42.672;23.230;2023-04-10T03:01:11;9.13;;;6.97;;
10987;SDS011;5547;42.672;23.230;2023-04-10T03:04:11;9.27;;;6.97;;
10987;SDS011;5547;42.672;23.230;2023-04-10T03:07:12;12.00;;;7.43;;
10987;SDS011;5547;42.672;23.230;2023-04-10T03:10:12;11.77;;;8.30;;
10987;SDS011;5547;42.672;23.230;2023-04-10T03:13:13;11.93;;;9.13;;
10987;SDS011;5547;42.672;23.230;2023-04-10T03:16:14;11.82;;;8.23;;
10987;SDS011;5547;42.672;23.230;2023-04-10T03:19:16;13.88;;;9.07;;
10987;SDS011;5547;42.672;23.230;2023-04-10T03:22:16;13.67;;;9.00;;
10987;SDS011;5547;42.672;23.230;2023-04-10T03:25:17;14.57;;;9.48;;
10987;SDS011;5547;42.672;23.230;2023-04-10T03:28:17;14.80;;;9.70;;
10987;SDS011;5547;42.672;23.230;2023-04-10T03:31:17;13.80;;;9.50;;
10987;SDS011;5547;42.672;23.230;2023-04-10T03:34:18;15.33;;;10.23;;
10987;SDS011;5547;42.672;23.230;2023-04-10T03:37:18;16.13;;;11.10;;
10987;SDS011;5547;42.672;23.230;2023-04-10T03:40:19;17.15;;;11.90;;
10987;SDS011;5547;42.672;23.230;2023-04-10T03:43:19;17.73;;;12.03;;
10987;SDS011;5547;42.672;23.230;2023-04-10T03:46:20;20.40;;;13.53;;
10987;SDS011;5547;42.672;23.230;2023-04-10T03:49:21;22.10;;;13.93;;
10987;SDS011;5547;42.672;23.230;2023-04-10T03:52:21;22.77;;;15.63;;
10987;SDS011;5547;42.672;23.230;2023-04-10T03:55:22;22.03;;;14.30;;
10987;SDS011;5547;42.672;23.230;2023-04-10T03:58:22;20.93;;;14.10;;
10987;SDS011;5547;42.672;23.230;2023-04-10T04:01:23;21.33;;;13.67;;
10987;SDS011;5547;42.672;23.230;2023-04-10T04:04:23;19.23;;;12.88;;
10987;SDS011;5547;42.672;23.230;2023-04-10T04:07:25;19.30;;;13.07;;
10987;SDS011;5547;42.672;23.230;2023-04-10T04:10:25;18.27;;;11.97;;
10987;SDS011;5547;42.672;23.230;2023-04-10T04:13:26;18.65;;;12.25;;
10987;SDS011;5547;42.672;23.230;2023-04-10T04:16:26;16.83;;;11.50;;
10987;SDS011;5547;42.672;23.230;2023-04-10T04:19:30;15.90;;;12.15;;
10987;SDS011;5547;42.672;23.230;2023-04-10T04:22:30;16.33;;;11.20;;
10987;SDS011;5547;42.672;23.230;2023-04-10T04:25:30;18.57;;;11.87;;
10987;SDS011;5547;42.672;23.230;2023-04-10T04:28:31;16.35;;;11.30;;
10987;SDS011;5547;42.672;23.230;2023-04-10T04:31:31;14.97;;;10.70;;
10987;SDS011;5547;42.672;23.230;2023-04-10T04:34:32;15.40;;;11.00;;
10987;SDS011;5547;42.672;23.230;2023-04-10T04:37:33;15.43;;;11.20;;
10987;SDS011;5547;42.672;23.230;2023-04-10T04:40:33;15.07;;;11.23;;
10987;SDS011;5547;42.672;23.230;2023-04-10T04:43:34;15.30;;;10.57;;
10987;SDS011;5547;42.672;23.230;2023-04-10T04:46:34;14.80;;;10.63;;
10987;SDS011;5547;42.672;23.230;2023-04-10T04:49:35;15.97;;;11.50;;
10987;SDS011;5547;42.672;23.230;2023-04-10T04:52:35;16.10;;;11.33;;
10987;SDS011;5547;42.672;23.230;2023-04-10T04:55:36;16.00;;;11.88;;
10987;SDS011;5547;42.672;23.230;2023-04-10T04:58:37;15.37;;;11.40;;
10987;SDS011;5547;42.672;23.230;2023-04-10T05:01:37;14.07;;;10.20;;
10987;SDS011;5547;42.672;23.230;2023-04-10T05:04:38;14.88;;;9.98;;
10987;SDS011;5547;42.672;23.230;2023-04-10T05:07:38;14.47;;;10.43;;
10987;SDS011;5547;42.672;23.230;2023-04-10T05:10:39;14.93;;;11.02;;
10987;SDS011;5547;42.672;23.230;2023-04-10T05:13:39;15.33;;;11.60;;
10987;SDS011;5547;42.672;23.230;2023-04-10T05:16:40;17.57;;;13.27;;
10987;SDS011;5547;42.672;23.230;2023-04-10T05:19:41;14.07;;;10.18;;
10987;SDS011;5547;42.672;23.230;2023-04-10T05:22:51;14.68;;;11.15;;
10987;SDS011;5547;42.672;23.230;2023-04-10T05:25:58;16.83;;;12.10;;
10987;SDS011;5547;42.672;23.230;2023-04-10T05:28:59;15.52;;;11.52;;
10987;SDS011;5547;42.672;23.230;2023-04-10T05:32:00;14.43;;;10.77;;
10987;SDS011;5547;42.672;23.230;2023-04-10T05:35:03;15.23;;;11.30;;
10987;SDS011;5547;42.672;23.230;2023-04-10T05:38:08;17.23;;;11.15;;
10987;SDS011;5547;42.672;23.230;2023-04-10T05:41:09;15.02;;;10.85;;
10987;SDS011;5547;42.672;23.230;2023-04-10T05:44:10;15.10;;;11.23;;
10987;SDS011;5547;42.672;23.230;2023-04-10T05:47:10;14.77;;;10.67;;
10987;SDS011;5547;42.672;23.230;2023-04-10T05:50:11;14.37;;;10.57;;
10987;SDS011;5547;42.672;23.230;2023-04-10T05:53:12;14.85;;;10.90;;
10987;SDS011;5547;42.672;23.230;2023-04-10T05:56:34;16.20;;;11.48;;
10987;SDS011;5547;42.672;23.230;2023-04-10T05:59:35;15.88;;;12.10;;
10987;SDS011;5547;42.672;23.230;2023-04-10T06:02:40;16.77;;;12.15;;
10987;SDS011;5547;42.672;23.230;2023-04-10T06:05:41;16.43;;;12.13;;
10987;SDS011;5547;42.672;23.230;2023-04-10T06:08:41;17.13;;;12.30;;
10987;SDS011;5547;42.672;23.230;2023-04-10T06:11:42;17.98;;;12.50;;
10987;SDS011;5547;42.672;23.230;2023-04-10T06:14:42;18.20;;;13.57;;
10987;SDS011;5547;42.672;23.230;2023-04-10T06:17:43;17.50;;;12.90;;
10987;SDS011;5547;42.672;23.230;2023-04-10T06:20:43;20.33;;;14.85;;
10987;SDS011;5547;42.672;23.230;2023-04-10T06:23:44;20.53;;;14.60;;
10987;SDS011;5547;42.672;23.230;2023-04-10T06:26:47;20.33;;;15.30;;
10987;SDS011;5547;42.672;23.230;2023-04-10T06:29:50;22.52;;;15.80;;
10987;SDS011;5547;42.672;23.230;2023-04-10T06:32:51;23.53;;;16.33;;
10987;SDS011;5547;42.672;23.230;2023-04-10T06:35:51;22.43;;;15.53;;
10987;SDS011;5547;42.672;23.230;2023-04-10T06:38:52;23.40;;;17.57;;
10987;SDS011;5547;42.672;23.230;2023-04-10T06:41:52;23.35;;;17.02;;
10987;SDS011;5547;42.672;23.230;2023-04-10T06:44:53;24.27;;;18.03;;
10987;SDS011;5547;42.672;23.230;2023-04-10T06:47:53;16.03;;;11.60;;
10987;SDS011;5547;42.672;23.230;2023-04-10T06:50:54;16.60;;;12.60;;
10987;SDS011;5547;42.672;23.230;2023-04-10T06:53:54;14.57;;;11.32;;
10987;SDS011;5547;42.672;23.230;2023-04-10T06:56:55;14.85;;;10.15;;
10987;SDS011;5547;42.672;23.230;2023-04-10T06:59:57;16.42;;;11.75;;
10987;SDS011;5547;42.672;23.230;2023-04-10T07:02:58;15.65;;;11.60;;
10987;SDS011;5547;42.672;23.230;2023-04-10T07:05:58;17.03;;;12.17;;
10987;SDS011;5547;42.672;23.230;2023-04-10T07:09:02;17.92;;;13.15;;
10987;SDS011;5547;42.672;23.230;2023-04-10T07:12:03;16.93;;;11.63;;
10987;SDS011;5547;42.672;23.230;2023-04-10T07:15:04;17.15;;;12.25;;
10987;SDS011;5547;42.672;23.230;2023-04-10T07:18:05;15.90;;;11.77;;
10987;SDS011;5547;42.672;23.230;2023-04-10T07:21:09;15.80;;;12.07;;
10987;SDS011;5547;42.672;23.230;2023-04-10T07:24:13;16.38;;;11.85;;
10987;SDS011;5547;42.672;23.230;2023-04-10T07:27:14;16.27;;;11.93;;
10987;SDS011;5547;42.672;23.230;2023-04-10T07:30:17;16.35;;;11.48;;
10987;SDS011;5547;42.672;23.230;2023-04-10T07:33:22;14.90;;;11.23;;
10987;SDS011;5547;42.672;23.230;2023-04-10T07:36:22;17.30;;;11.50;;
10987;SDS011;5547;42.672;23.230;2023-04-10T07:39:22;15.00;;;11.60;;
10987;SDS011;5547;42.672;23.230;2023-04-10T07:42:23;14.85;;;11.23;;
10987;SDS011;5547;42.672;23.230;2023-04-10T07:45:23;15.13;;;11.30;;
10987;SDS011;5547;42.672;23.230;2023-04-10T07:48:24;15.37;;;11.70;;
10987;SDS011;5547;42.672;23.230;2023-04-10T07:51:25;14.38;;;11.00;;
10987;SDS011;5547;42.672;23.230;2023-04-10T07:54:26;14.45;;;11.30;;
10987;SDS011;5547;42.672;23.230;2023-04-10T07:57:27;14.17;;;11.07;;
10987;SDS011;5547;42.672;23.230;2023-04-10T08:00:31;14.93;;;11.25;;
10987;SDS011;5547;42.672;23.230;2023-04-10T08:03:39;15.27;;;10.85;;
10987;SDS011;5547;42.672;23.230;2023-04-10T08:06:40;13.48;;;10.75;;
10987;SDS011;5547;42.672;23.230;2023-04-10T08:09:41;13.57;;;10.30;;
10987;SDS011;5547;42.672;23.230;2023-04-10T08:12:41;14.20;;;10.83;;
10987;SDS011;5547;42.672;23.230;2023-04-10T08:15:42;14.17;;;10.50;;
10987;SDS011;5547;42.672;23.230;2023-04-10T08:18:42;14.70;;;10.95;;
10987;SDS011;5547;42.672;23.230;2023-04-10T08:21:42;15.43;;;11.35;;
10987;SDS011;5547;42.672;23.230;2023-04-10T08:24:43;14.07;;;11.00;;
10987;SDS011;5547;42.672;23.230;2023-04-10T08:27:43;16.10;;;11.60;;
10987;SDS011;5547;42.672;23.230;2023-04-10T08:30:44;15.27;;;10.73;;
10987;SDS011;5547;42.672;23.230;2023-04-10T08:33:46;15.18;;;11.00;;
10987;SDS011;5547;42.672;23.230;2023-04-10T08:36:47;15.98;;;12.48;;
10987;SDS011;5547;42.672;23.230;2023-04-10T08:39:48;13.90;;;10.83;;
10987;SDS011;5547;42.672;23.230;2023-04-10T08:42:48;16.57;;;11.97;;
10987;SDS011;5547;42.672;23.230;2023-04-10T08:45:49;15.98;;;12.25;;
10987;SDS011;5547;42.672;23.230;2023-04-10T08:48:53;14.73;;;12.35;;
10987;SDS011;5547;42.672;23.230;2023-04-10T08:51:59;13.23;;;10.35;;
10987;SDS011;5547;42.672;23.230;2023-04-10T08:55:04;15.90;;;11.07;;
10987;SDS011;5547;42.672;23.230;2023-04-10T09:01:18;14.10;;;10.80;;
10987;SDS011;5547;42.672;23.230;2023-04-10T09:04:20;14.10;;;10.57;;
10987;SDS011;5547;42.672;23.230;2023-04-10T09:07:21;16.75;;;12.43;;
10987;SDS011;5547;42.672;23.230;2023-04-10T09:10:22;77.50;;;35.55;;
10987;SDS011;5547;42.672;23.230;2023-04-10T09:13:38;26.30;;;16.57;;
10987;SDS011;5547;42.672;23.230;2023-04-10T09:16:41;30.55;;;17.92;;
10987;SDS011;5547;42.672;23.230;2023-04-10T09:19:41;71.17;;;32.07;;
10987;SDS011;5547;42.672;23.230;2023-04-10T09:22:43;17.70;;;13.07;;
10987;SDS011;5547;42.672;23.230;2023-04-10T09:25:43;13.77;;;10.90;;
10987;SDS011;5547;42.672;23.230;2023-04-10T09:29:02;15.00;;;11.43;;
10987;SDS011;5547;42.672;23.230;2023-04-10T09:32:04;14.10;;;10.77;;
10987;SDS011;5547;42.672;23.230;2023-04-10T09:35:05;13.57;;;10.57;;
10987;SDS011;5547;42.672;23.230;2023-04-10T09:38:16;19.63;;;14.57;;
10987;SDS011;5547;42.672;23.230;2023-04-10T09:41:18;15.80;;;12.10;;
10987;SDS011;5547;42.672;23.230;2023-04-10T09:44:26;13.27;;;10.17;;
10987;SDS011;5547;42.672;23.230;2023-04-10T09:47:32;15.87;;;10.87;;
10987;SDS011;5547;42.672;23.230;2023-04-10T09:50:33;14.20;;;9.95;;
10987;SDS011;5547;42.672;23.230;2023-04-10T09:53:47;15.10;;;10.98;;
10987;SDS011;5547;42.672;23.230;2023-04-10T09:56:48;12.70;;;9.80;;
10987;SDS011;5547;42.672;23.230;2023-04-10T09:59:53;16.90;;;11.70;;
10987;SDS011;5547;42.672;23.230;2023-04-10T10:02:55;11.37;;;9.23;;
10987;SDS011;5547;42.672;23.230;2023-04-10T10:05:58;12.73;;;9.68;;
10987;SDS011;5547;42.672;23.230;2023-04-10T10:09:02;14.03;;;9.60;;
10987;SDS011;5547;42.672;23.230;2023-04-10T10:12:04;12.03;;;9.93;;
10987;SDS011;5547;42.672;23.230;2023-04-10T10:15:13;12.00;;;9.77;;
10987;SDS011;5547;42.672;23.230;2023-04-10T10:22:00;11.77;;;9.13;;
10987;SDS011;5547;42.672;23.230;2023-04-10T10:25:02;11.63;;;9.13;;
10987;SDS011;5547;42.672;23.230;2023-04-10T10:28:03;10.27;;;7.95;;
10987;SDS011;5547;42.672;23.230;2023-04-10T10:31:04;9.50;;;8.00;;
10987;SDS011;5547;42.672;23.230;2023-04-10T10:34:05;10.02;;;8.25;;
10987;SDS011;5547;42.672;23.230;2023-04-10T10:37:08;9.07;;;7.90;;
10987;SDS011;5547;42.672;23.230;2023-04-10T10:46:42;10.57;;;8.80;;
10987;SDS011;5547;42.672;23.230;2023-04-10T10:49:51;13.90;;;9.70;;
10987;SDS011;5547;42.672;23.230;2023-04-10T10:53:02;12.10;;;10.40;;
10987;SDS011;5547;42.672;23.230;2023-04-10T11:02:45;13.47;;;10.17;;
10987;SDS011;5547;42.672;23.230;2023-04-10T11:06:08;12.05;;;9.07;;
10987;SDS011;5547;42.672;23.230;2023-04-10T11:09:42;13.02;;;9.80;;
10987;SDS011;5547;42.672;23.230;2023-04-10T11:16:18;10.53;;;8.60;;
10987;SDS011;5547;42.672;23.230;2023-04-10T11:19:19;9.80;;;8.45;;
10987;SDS011;5547;42.672;23.230;2023-04-10T11:22:21;9.40;;;7.85;;
10987;SDS011;5547;42.672;23.230;2023-04-10T11:25:21;9.33;;;8.20;;
10987;SDS011;5547;42.672;23.230;2023-04-10T11:31:34;9.82;;;8.02;;
10987;SDS011;5547;42.672;23.230;2023-04-10T11:34:35;10.07;;;7.70;;
10987;SDS011;5547;42.672;23.230;2023-04-10T11:37:43;10.00;;;8.40;;
10987;SDS011;5547;42.672;23.230;2023-04-10T11:40:59;11.93;;;8.73;;
10987;SDS011;5547;42.672;23.230;2023-04-10T11:44:09;10.07;;;7.60;;
10987;SDS011;5547;42.672;23.230;2023-04-10T11:47:11;9.93;;;8.27;;
10987;SDS011;5547;42.672;23.230;2023-04-10T11:50:12;11.03;;;8.30;;
10987;SDS011;5547;42.672;23.230;2023-04-10T11:53:20;10.40;;;8.70;;
10987;SDS011;5547;42.672;23.230;2023-04-10T11:56:20;9.73;;;8.50;;
10987;SDS011;5547;42.672;23.230;2023-04-10T11:59:21;10.63;;;8.40;;
10987;SDS011;5547;42.672;23.230;2023-04-10T12:02:22;12.27;;;10.10;;
10987;SDS011;5547;42.672;23.230;2023-04-10T12:05:23;10.00;;;8.13;;
10987;SDS011;5547;42.672;23.230;2023-04-10T12:08:30;9.40;;;8.00;;
10987;SDS011;5547;42.672;23.230;2023-04-10T12:11:34;8.98;;;8.07;;
10987;SDS011;5547;42.672;23.230;2023-04-10T12:14:35;10.27;;;8.97;;
10987;SDS011;5547;42.672;23.230;2023-04-10T12:17:38;9.80;;;8.63;;
10987;SDS011;5547;42.672;23.230;2023-04-10T12:20:39;11.10;;;9.50;;
10987;SDS011;5547;42.672;23.230;2023-04-10T12:23:39;11.82;;;9.95;;
10987;SDS011;5547;42.672;23.230;2023-04-10T12:26:46;11.48;;;9.65;;
10987;SDS011;5547;42.672;23.230;2023-04-10T12:29:49;12.43;;;9.68;;
10987;SDS011;5547;42.672;23.230;2023-04-10T12:32:51;11.83;;;8.87;;
10987;SDS011;5547;42.672;23.230;2023-04-10T12:35:54;12.63;;;10.90;;
10987;SDS011;5547;42.672;23.230;2023-04-10T12:38:56;15.40;;;12.27;;
10987;SDS011;5547;42.672;23.230;2023-04-10T12:42:13;15.18;;;11.45;;
10987;SDS011;5547;42.672;23.230;2023-04-10T12:45:18;13.80;;;11.18;;
10987;SDS011;5547;42.672;23.230;2023-04-10T12:48:22;11.93;;;9.70;;
10987;SDS011;5547;42.672;23.230;2023-04-10T12:54:42;8.40;;;6.47;;
10987;SDS011;5547;42.672;23.230;2023-04-10T12:57:47;7.47;;;4.63;;
10987;SDS011;5547;42.672;23.230;2023-04-10T13:00:48;5.05;;;4.50;;
10987;SDS011;5547;42.672;23.230;2023-04-10T13:03:48;5.82;;;4.97;;
10987;SDS011;5547;42.672;23.230;2023-04-10T13:06:49;7.37;;;6.00;;
10987;SDS011;5547;42.672;23.230;2023-04-10T13:09:52;7.87;;;6.43;;
10987;SDS011;5547;42.672;23.230;2023-04-10T13:12:53;12.00;;;10.00;;
10987;SDS011;5547;42.672;23.230;2023-04-10T13:15:53;10.38;;;9.38;;
10987;SDS011;5547;42.672;23.230;2023-04-10T13:18:54;7.17;;;5.90;;
10987;SDS011;5547;42.672;23.230;2023-04-10T13:21:54;7.10;;;6.38;;
10987;SDS011;5547;42.672;23.230;2023-04-10T13:24:55;8.25;;;7.13;;
10987;SDS011;5547;42.672;23.230;2023-04-10T13:27:55;9.43;;;7.70;;
10987;SDS011;5547;42.672;23.230;2023-04-10T13:30:56;8.83;;;7.93;;
10987;SDS011;5547;42.672;23.230;2023-04-10T13:33:57;9.52;;;8.20;;
10987;SDS011;5547;42.672;23.230;2023-04-10T13:36:58;11.60;;;9.83;;
10987;SDS011;5547;42.672;23.230;2023-04-10T13:39:59;11.13;;;9.63;;
10987;SDS011;5547;42.672;23.230;2023-04-10T13:42:59;10.93;;;8.93;;
10987;SDS011;5547;42.672;23.230;2023-04-10T13:45:59;12.27;;;10.27;;
10987;SDS011;5547;42.672;23.230;2023-04-10T13:49:00;13.50;;;10.40;;
10987;SDS011;5547;42.672;23.230;2023-04-10T13:52:00;13.00;;;10.63;;
10987;SDS011;5547;42.672;23.230;2023-04-10T13:55:01;12.10;;;10.47;;
10987;SDS011;5547;42.672;23.230;2023-04-10T13:58:01;11.87;;;9.87;;
10987;SDS011;5547;42.672;23.230;2023-04-10T14:01:01;13.53;;;10.90;;
10987;SDS011;5547;42.672;23.230;2023-04-10T14:04:02;13.37;;;11.37;;
10987;SDS011;5547;42.672;23.230;2023-04-10T14:07:02;14.90;;;12.02;;
10987;SDS011;5547;42.672;23.230;2023-04-10T14:10:03;13.00;;;10.27;;
10987;SDS011;5547;42.672;23.230;2023-04-10T14:13:04;15.20;;;12.10;;
10987;SDS011;5547;42.672;23.230;2023-04-10T14:16:05;13.40;;;11.45;;
10987;SDS011;5547;42.672;23.230;2023-04-10T14:19:06;10.93;;;8.90;;
10987;SDS011;5547;42.672;23.230;2023-04-10T14:22:07;10.98;;;9.27;;
10987;SDS011;5547;42.672;23.230;2023-04-10T14:25:07;12.85;;;11.02;;
10987;SDS011;5547;42.672;23.230;2023-04-10T14:28:10;11.68;;;10.25;;
10987;SDS011;5547;42.672;23.230;2023-04-10T14:31:16;7.10;;;6.40;;
10987;SDS011;5547;42.672;23.230;2023-04-10T14:34:17;7.13;;;6.15;;
10987;SDS011;5547;42.672;23.230;2023-04-10T14:37:17;8.07;;;6.20;;
10987;SDS011;5547;42.672;23.230;2023-04-10T14:40:18;8.40;;;6.23;;
10987;SDS011;5547;42.672;23.230;2023-04-10T14:43:18;8.80;;;7.00;;
10987;SDS011;5547;42.672;23.230;2023-04-10T14:46:19;7.90;;;7.03;;
10987;SDS011;5547;42.672;23.230;2023-04-10T14:49:19;7.33;;;6.57;;
10987;SDS011;5547;42.672;23.230;2023-04-10T14:52:20;7.57;;;6.33;;
10987;SDS011;5547;42.672;23.230;2023-04-10T14:55:20;8.63;;;6.83;;
10987;SDS011;5547;42.672;23.230;2023-04-10T14:58:20;8.73;;;7.27;;
10987;SDS011;5547;42.672;23.230;2023-04-10T15:01:21;8.07;;;7.18;;
10987;SDS011;5547;42.672;23.230;2023-04-10T15:04:21;10.27;;;7.93;;
10987;SDS011;5547;42.672;23.230;2023-04-10T15:07:22;9.90;;;8.47;;
10987;SDS011;5547;42.672;23.230;2023-04-10T15:10:30;12.68;;;10.30;;
10987;SDS011;5547;42.672;23.230;2023-04-10T15:13:30;13.00;;;10.50;;
10987;SDS011;5547;42.672;23.230;2023-04-10T15:16:30;12.30;;;9.43;;
10987;SDS011;5547;42.672;23.230;2023-04-10T15:19:31;11.67;;;9.83;;
10987;SDS011;5547;42.672;23.230;2023-04-10T15:22:31;13.20;;;11.63;;
10987;SDS011;5547;42.672;23.230;2023-04-10T15:25:33;13.27;;;10.38;;
10987;SDS011;5547;42.672;23.230;2023-04-10T15:28:34;14.43;;;10.93;;
10987;SDS011;5547;42.672;23.230;2023-04-10T15:31:35;12.13;;;10.55;;
10987;SDS011;5547;42.672;23.230;2023-04-10T15:34:36;13.27;;;10.57;;
10987;SDS011;5547;42.672;23.230;2023-04-10T15:37:36;13.50;;;10.87;;
10987;SDS011;5547;42.672;23.230;2023-04-10T15:40:37;13.77;;;11.20;;
10987;SDS011;5547;42.672;23.230;2023-04-10T15:43:41;13.48;;;11.48;;
10987;SDS011;5547;42.672;23.230;2023-04-10T15:46:42;15.07;;;12.17;;
10987;SDS011;5547;42.672;23.230;2023-04-10T15:49:42;14.40;;;11.93;;
10987;SDS011;5547;42.672;23.230;2023-04-10T15:52:43;14.60;;;11.67;;
10987;SDS011;5547;42.672;23.230;2023-04-10T15:55:43;16.00;;;12.17;;
10987;SDS011;5547;42.672;23.230;2023-04-10T15:58:43;16.08;;;12.48;;
10987;SDS011;5547;42.672;23.230;2023-04-10T16:01:44;14.57;;;11.77;;
10987;SDS011;5547;42.672;23.230;2023-04-10T16:04:44;16.10;;;13.13;;
10987;SDS011;5547;42.672;23.230;2023-04-10T16:07:45;17.27;;;12.30;;
10987;SDS011;5547;42.672;23.230;2023-04-10T16:10:45;15.80;;;12.13;;
10987;SDS011;5547;42.672;23.230;2023-04-10T16:13:45;16.70;;;12.93;;
10987;SDS011;5547;42.672;23.230;2023-04-10T16:16:46;18.60;;;14.03;;
10987;SDS011;5547;42.672;23.230;2023-04-10T16:19:46;19.30;;;14.82;;
10987;SDS011;5547;42.672;23.230;2023-04-10T16:22:47;27.97;;;17.23;;
10987;SDS011;5547;42.672;23.230;2023-04-10T16:25:47;40.10;;;21.10;;
10987;SDS011;5547;42.672;23.230;2023-04-10T16:28:47;23.23;;;13.90;;
10987;SDS011;5547;42.672;23.230;2023-04-10T16:31:48;15.87;;;11.57;;
10987;SDS011;5547;42.672;23.230;2023-04-10T16:34:48;14.73;;;10.17;;
10987;SDS011;5547;42.672;23.230;2023-04-10T16:37:49;13.18;;;10.25;;
10987;SDS011;5547;42.672;23.230;2023-04-10T16:40:49;12.00;;;9.95;;
10987;SDS011;5547;42.672;23.230;2023-04-10T16:43:50;17.33;;;13.33;;
10987;SDS011;5547;42.672;23.230;2023-04-10T16:46:50;18.30;;;14.57;;
10987;SDS011;5547;42.672;23.230;2023-04-10T16:49:51;20.53;;;16.03;;
10987;SDS011;5547;42.672;23.230;2023-04-10T16:52:51;24.77;;;18.20;;
10987;SDS011;5547;42.672;23.230;2023-04-10T16:55:58;18.70;;;13.50;;
10987;SDS011;5547;42.672;23.230;2023-04-10T16:58:58;14.43;;;10.63;;
10987;SDS011;5547;42.672;23.230;2023-04-10T17:01:59;9.70;;;7.53;;
10987;SDS011;5547;42.672;23.230;2023-04-10T17:04:59;9.05;;;7.10;;
10987;SDS011;5547;42.672;23.230;2023-04-10T17:08:00;9.83;;;7.13;;
10987;SDS011;5547;42.672;23.230;2023-04-10T17:11:00;9.60;;;7.20;;
10987;SDS011;5547;42.672;23.230;2023-04-10T17:14:00;9.60;;;7.93;;
10987;SDS011;5547;42.672;23.230;2023-04-10T17:17:02;11.37;;;9.00;;
10987;SDS011;5547;42.672;23.230;2023-04-10T17:20:03;17.25;;;14.00;;
10987;SDS011;5547;42.672;23.230;2023-04-10T17:23:03;13.60;;;10.98;;
10987;SDS011;5547;42.672;23.230;2023-04-10T17:26:04;15.13;;;11.40;;
10987;SDS011;5547;42.672;23.230;2023-04-10T17:29:05;13.95;;;11.70;;
10987;SDS011;5547;42.672;23.230;2023-04-10T17:32:06;13.33;;;10.70;;
10987;SDS011;5547;42.672;23.230;2023-04-10T17:35:08;13.95;;;11.10;;
10987;SDS011;5547;42.672;23.230;2023-04-10T17:38:08;15.57;;;11.90;;
10987;SDS011;5547;42.672;23.230;2023-04-10T17:41:08;16.27;;;13.17;;
10987;SDS011;5547;42.672;23.230;2023-04-10T17:44:12;16.30;;;13.23;;
10987;SDS011;5547;42.672;23.230;2023-04-10T17:47:13;17.40;;;13.73;;
10987;SDS011;5547;42.672;23.230;2023-04-10T17:50:13;18.87;;;15.00;;
10987;SDS011;5547;42.672;23.230;2023-04-10T17:53:14;20.23;;;15.65;;
10987;SDS011;5547;42.672;23.230;2023-04-10T17:56:18;23.90;;;18.70;;
10987;SDS011;5547;42.672;23.230;2023-04-10T17:59:18;25.50;;;19.10;;
10987;SDS011;5547;42.672;23.230;2023-04-10T18:02:19;20.40;;;16.33;;
10987;SDS011;5547;42.672;23.230;2023-04-10T18:05:19;20.20;;;14.30;;
10987;SDS011;5547;42.672;23.230;2023-04-10T18:08:20;19.30;;;14.20;;
10987;SDS011;5547;42.672;23.230;2023-04-10T18:11:20;20.50;;;15.88;;
10987;SDS011;5547;42.672;23.230;2023-04-10T18:14:22;23.67;;;16.40;;
10987;SDS011;5547;42.672;23.230;2023-04-10T18:17:23;22.80;;;16.20;;
10987;SDS011;5547;42.672;23.230;2023-04-10T18:20:23;22.13;;;16.10;;
10987;SDS011;5547;42.672;23.230;2023-04-10T18:23:24;21.50;;;15.73;;
10987;SDS011;5547;42.672;23.230;2023-04-10T18:26:27;20.05;;;15.32;;
10987;SDS011;5547;42.672;23.230;2023-04-10T18:29:30;19.37;;;14.00;;
10987;SDS011;5547;42.672;23.230;2023-04-10T18:32:30;18.77;;;14.43;;
10987;SDS011;5547;42.672;23.230;2023-04-10T18:35:31;19.90;;;14.43;;
10987;SDS011;5547;42.672;23.230;2023-04-10T18:38:32;19.83;;;14.00;;
10987;SDS011;5547;42.672;23.230;2023-04-10T18:41:33;19.35;;;14.98;;